Time;durP1;ratioP1;P1;durP2;ratioP2;P2;SDS_P1;SDS_P2;PMS_P1;PMS_P2;Temp;Humidity;BMP_temperature;BMP_pressure;BME280_temperature;BME280_humidity;BME280_pressure;Samples;Min_cycle;Max_cycle;Signal;HPM_P1;HPM_P2
2022/10/06 00:01:15;;;;;;;14.02;2.15;;;12.60;99.90;;;;;;5049905;28;20480;-82
2022/10/06 00:03:42;;;;;;;14.93;3.00;;;12.90;99.90;;;;;;5040046;28;20041;-81
2022/10/06 00:06:09;;;;;;;10.77;1.98;;;12.80;99.90;;;;;;5049689;28;20037;-82
2022/10/06 00:08:37;;;;;;;8.15;1.42;;;12.70;99.90;;;;;;5031916;28;20037;-81
2022/10/06 00:11:04;;;;;;;10.77;2.05;;;12.70;99.90;;;;;;5042717;28;20166;-82
2022/10/06 00:13:31;;;;;;;10.40;2.13;;;12.90;99.90;;;;;;5049092;28;20127;-82
2022/10/06 00:15:56;;;;;;;12.27;2.28;;;12.80;99.90;;;;;;5047460;28;20041;-81
2022/10/06 00:18:22;;;;;;;6.20;1.35;;;12.90;99.90;;;;;;5032029;28;20392;-81
2022/10/06 00:20:57;;;;;;;9.98;1.83;;;12.70;99.90;;;;;;5048908;28;20170;-80
2022/10/06 00:23:22;;;;;;;10.68;2.15;;;12.80;99.90;;;;;;5027728;28;20053;-80
2022/10/06 00:25:48;;;;;;;12.77;3.20;;;12.90;99.90;;;;;;5047267;28;20056;-82
2022/10/06 00:28:15;;;;;;;12.23;1.77;;;12.70;99.90;;;;;;5050649;28;20436;-78
2022/10/06 00:30:41;;;;;;;12.50;2.03;;;12.70;99.90;;;;;;5049907;28;20049;-82
2022/10/06 00:33:10;;;;;;;21.98;3.05;;;12.90;99.90;;;;;;5051997;28;20411;-80
2022/10/06 00:35:36;;;;;;;14.57;2.50;;;12.90;99.90;;;;;;5032518;28;20084;-81
2022/10/06 00:38:02;;;;;;;13.10;1.95;;;12.80;99.90;;;;;;5046852;28;20436;-82
2022/10/06 00:40:28;;;;;;;13.82;1.85;;;12.90;99.90;;;;;;5048807;28;20049;-81
2022/10/06 00:43:03;;;;;;;8.30;2.25;;;12.90;99.90;;;;;;5046511;28;20041;-82
2022/10/06 00:45:43;;;;;;;12.90;2.00;;;12.80;99.90;;;;;;5031185;28;20041;-81
2022/10/06 00:48:25;;;;;;;14.07;2.28;;;12.80;99.90;;;;;;5048732;28;20045;-80
2022/10/06 00:50:53;;;;;;;9.60;1.70;;;12.80;99.90;;;;;;5029580;28;20053;-83
2022/10/06 00:53:20;;;;;;;12.10;2.13;;;12.70;99.90;;;;;;5046992;28;20048;-81
2022/10/06 00:55:46;;;;;;;11.65;3.10;;;12.80;99.90;;;;;;5047805;28;20415;-81
2022/10/06 00:58:13;;;;;;;8.70;1.70;;;12.70;99.90;;;;;;5046766;28;20116;-82
2022/10/06 01:00:42;;;;;;;20.67;3.58;;;12.70;99.90;;;;;;5046932;28;20446;-83
2022/10/06 01:03:17;;;;;;;7.28;2.50;;;12.60;99.90;;;;;;5031130;28;20040;-80
2022/10/06 01:05:47;;;;;;;7.82;1.83;;;12.70;99.90;;;;;;5039097;28;20487;-81
2022/10/06 01:08:13;;;;;;;;;;;12.60;99.90;;;;;;5049415;28;20047;-81
2022/10/06 01:10:38;;;;;;;11.10;2.38;;;12.60;99.90;;;;;;5043400;28;20426;-80
2022/10/06 01:13:05;;;;;;;16.05;3.42;;;12.80;99.90;;;;;;5028868;28;20037;-83
2022/10/06 01:15:32;;;;;;;9.20;1.45;;;12.70;99.90;;;;;;5041058;28;20098;-81
2022/10/06 01:18:12;;;;;;;13.00;2.08;;;12.70;99.90;;;;;;5045839;28;20048;-83
2022/10/06 01:20:42;;;;;;;7.30;1.67;;;12.70;99.90;;;;;;5016933;28;20046;-80
2022/10/06 01:23:09;;;;;;;6.93;1.67;;;12.60;99.90;;;;;;5041873;28;20071;-80
2022/10/06 01:25:36;;;;;;;16.58;3.33;;;12.50;99.90;;;;;;5017721;28;20049;-83
2022/10/06 01:28:04;;;;;;;13.82;2.72;;;12.60;99.90;;;;;;5047749;28;20037;-80
2022/10/06 01:30:44;;;;;;;18.00;4.13;;;12.50;99.90;;;;;;5048245;28;20179;-82
2022/10/06 01:33:10;;;;;;;11.77;2.40;;;12.50;99.90;;;;;;5037381;28;20048;-78
2022/10/06 01:35:36;;;;;;;12.20;3.58;;;12.50;99.90;;;;;;5039852;28;20049;-83
2022/10/06 01:38:03;;;;;;;15.52;3.15;;;12.50;99.90;;;;;;5041731;28;20395;-81
2022/10/06 01:40:29;;;;;;;10.98;1.80;;;12.50;99.90;;;;;;5038556;28;20156;-80
2022/10/06 01:42:55;;;;;;;13.90;2.63;;;12.60;99.90;;;;;;5046808;28;20044;-82
2022/10/06 01:45:21;;;;;;;12.05;1.35;;;12.40;99.90;;;;;;5040639;28;20085;-82
2022/10/06 01:47:46;;;;;;;11.93;2.00;;;12.50;99.90;;;;;;5028994;28;20203;-81
2022/10/06 01:50:13;;;;;;;10.23;2.47;;;12.40;99.90;;;;;;5039463;28;20036;-81
2022/10/06 01:52:38;;;;;;;9.43;2.95;;;12.40;99.90;;;;;;5057251;28;20040;-83
2022/10/06 01:55:05;;;;;;;8.63;1.65;;;12.30;99.90;;;;;;5033486;28;20446;-81
2022/10/06 01:57:30;;;;;;;10.85;2.20;;;12.30;99.90;;;;;;5052462;28;20087;-81
2022/10/06 01:59:56;;;;;;;13.05;2.88;;;12.30;99.90;;;;;;5052348;28;20068;-81
2022/10/06 02:02:22;;;;;;;10.60;1.20;;;12.40;99.90;;;;;;5052730;28;20428;-81
2022/10/06 02:04:48;;;;;;;7.00;1.77;;;12.30;99.90;;;;;;5051051;28;20132;-82
2022/10/06 02:07:13;;;;;;;15.48;3.30;;;12.30;99.90;;;;;;5055643;28;20125;-80
2022/10/06 02:09:39;;;;;;;14.07;2.67;;;12.30;99.90;;;;;;5056240;28;20040;-81
2022/10/06 02:12:04;;;;;;;11.48;3.03;;;12.30;99.90;;;;;;5043599;28;20041;-80
2022/10/06 02:14:33;;;;;;;10.85;1.60;;;12.30;99.90;;;;;;5034314;28;20044;-82
2022/10/06 02:16:59;;;;;;;10.63;2.55;;;12.30;99.90;;;;;;5051403;28;20048;-81
2022/10/06 02:19:24;;;;;;;9.23;1.67;;;12.30;99.90;;;;;;5051690;28;20041;-82
2022/10/06 02:21:50;;;;;;;9.73;2.58;;;12.20;99.90;;;;;;5049581;28;20041;-81
2022/10/06 02:24:16;;;;;;;10.18;2.55;;;12.20;99.90;;;;;;5016004;28;20037;-80
2022/10/06 02:26:41;;;;;;;14.70;2.42;;;12.10;99.90;;;;;;5026497;28;20458;-81
2022/10/06 02:29:07;;;;;;;7.53;2.25;;;12.20;99.90;;;;;;5053996;28;20037;-78
2022/10/06 02:31:33;;;;;;;10.10;2.42;;;12.20;99.90;;;;;;5025498;28;20088;-80
2022/10/06 02:33:58;;;;;;;6.28;1.88;;;12.10;99.90;;;;;;5040157;28;20120;-80
2022/10/06 02:36:24;;;;;;;14.25;2.92;;;12.10;99.90;;;;;;5032768;28;20602;-84
2022/10/06 02:38:50;;;;;;;10.50;2.53;;;12.20;99.90;;;;;;5044122;28;20080;-81
2022/10/06 02:41:15;;;;;;;10.77;1.77;;;12.20;99.90;;;;;;5032259;28;20530;-79
2022/10/06 02:43:41;;;;;;;17.20;2.88;;;12.10;99.90;;;;;;5044354;28;20038;-81
2022/10/06 02:46:11;;;;;;;7.13;1.05;;;12.10;99.90;;;;;;5046709;28;20047;-80
2022/10/06 02:48:37;;;;;;;14.52;2.97;;;12.00;99.90;;;;;;5050223;28;20045;-82
2022/10/06 02:51:08;;;;;;;11.52;2.55;;;12.00;99.90;;;;;;5028376;28;20124;-79
2022/10/06 02:53:35;;;;;;;9.00;1.60;;;12.00;99.90;;;;;;5040979;28;20056;-81
2022/10/06 02:56:05;;;;;;;6.15;1.45;;;11.90;99.90;;;;;;5049795;28;20420;-77
2022/10/06 02:58:31;;;;;;;7.82;1.15;;;11.90;99.90;;;;;;5049550;28;20439;-81
2022/10/06 03:01:22;;;;;;;6.88;1.15;;;12.00;99.90;;;;;;5049641;28;20048;-81
2022/10/06 03:03:49;;;;;;;11.60;1.35;;;12.00;99.90;;;;;;5040297;28;20519;-79
2022/10/06 03:06:20;;;;;;;7.75;2.15;;;12.00;99.90;;;;;;5050900;28;20171;-82
2022/10/06 03:08:59;;;;;;;8.77;1.92;;;11.90;99.90;;;;;;5031475;28;20059;-79
2022/10/06 03:11:27;;;;;;;9.10;1.50;;;11.80;99.90;;;;;;5047280;28;20071;-79
2022/10/06 03:13:53;;;;;;;9.90;2.08;;;11.80;99.90;;;;;;5044094;28;20068;-81
2022/10/06 03:16:30;;;;;;;8.75;2.08;;;11.90;99.90;;;;;;5024433;28;20073;-81
2022/10/06 03:18:57;;;;;;;10.48;2.00;;;11.90;99.90;;;;;;5007648;28;20047;-80
2022/10/06 03:21:25;;;;;;;12.45;1.65;;;11.70;99.90;;;;;;5047539;28;20095;-81
2022/10/06 03:23:52;;;;;;;10.10;1.63;;;11.90;99.90;;;;;;5044382;28;20091;-82
2022/10/06 03:26:20;;;;;;;8.27;1.23;;;11.70;99.90;;;;;;5049768;28;20102;-82
2022/10/06 03:28:46;;;;;;;9.73;1.65;;;11.80;99.90;;;;;;5051230;28;20033;-77
2022/10/06 03:31:13;;;;;;;15.48;2.28;;;11.70;99.90;;;;;;5049473;28;20111;-82
2022/10/06 03:33:38;;;;;;;14.60;1.83;;;11.80;99.90;;;;;;5050049;28;20040;-81
2022/10/06 03:36:08;;;;;;;10.85;2.08;;;11.80;99.90;;;;;;5042629;28;20103;-79
2022/10/06 03:38:35;;;;;;;14.35;2.28;;;11.70;99.90;;;;;;5025795;28;20106;-79
2022/10/06 03:41:10;;;;;;;6.88;2.15;;;11.60;99.90;;;;;;5048473;28;20037;-81
2022/10/06 03:43:36;;;;;;;9.90;1.75;;;11.70;99.90;;;;;;5047310;28;20598;-81
2022/10/06 03:46:03;;;;;;;6.85;1.58;;;11.70;99.90;;;;;;5041003;28;20124;-81
2022/10/06 03:48:32;;;;;;;11.50;1.90;;;11.50;99.90;;;;;;5046463;28;20042;-79
2022/10/06 03:51:03;;;;;;;11.77;2.40;;;11.60;99.90;;;;;;5046681;28;20506;-82
2022/10/06 03:53:29;;;;;;;10.30;1.83;;;11.40;99.90;;;;;;5047479;28;20048;-79
2022/10/06 03:55:59;;;;;;;7.18;1.48;;;11.50;99.90;;;;;;5046702;28;20037;-81
2022/10/06 03:58:25;;;;;;;10.20;1.73;;;11.40;99.90;;;;;;5048879;28;20040;-79
2022/10/06 04:01:05;;;;;;;8.73;1.40;;;11.30;99.90;;;;;;5048574;28;20498;-81
2022/10/06 04:03:32;;;;;;;11.10;2.47;;;11.30;99.90;;;;;;5031111;28;20045;-80
2022/10/06 04:06:01;;;;;;;15.18;2.00;;;11.40;99.90;;;;;;5048633;28;20660;-81
2022/10/06 04:08:28;;;;;;;16.85;2.83;;;11.40;99.90;;;;;;5031227;28;20047;-78
2022/10/06 04:10:54;;;;;;;12.80;2.15;;;11.40;99.90;;;;;;5046772;28;20097;-81
2022/10/06 04:13:21;;;;;;;11.88;1.77;;;11.30;99.90;;;;;;5048938;28;20049;-81
2022/10/06 04:15:47;;;;;;;8.38;1.38;;;11.30;99.90;;;;;;5033722;28;20049;-80
2022/10/06 04:18:14;;;;;;;9.93;1.50;;;11.40;99.90;;;;;;5049735;28;20391;-80
2022/10/06 04:20:40;;;;;;;16.23;3.15;;;11.30;99.90;;;;;;5049036;28;20049;-81
2022/10/06 04:23:06;;;;;;;11.05;1.50;;;11.30;99.90;;;;;;5019592;28;20045;-81
2022/10/06 04:25:32;;;;;;;10.52;2.17;;;11.40;99.90;;;;;;5048091;28;20041;-81
2022/10/06 04:27:58;;;;;;;8.02;1.63;;;11.40;99.90;;;;;;5047879;28;20464;-82
2022/10/06 04:30:25;;;;;;;11.73;3.40;;;11.40;99.90;;;;;;5049294;28;20111;-82
2022/10/06 04:32:51;;;;;;;16.65;4.13;;;11.30;99.90;;;;;;5040694;28;20045;-81
2022/10/06 04:35:17;;;;;;;10.95;2.30;;;11.30;99.90;;;;;;5039778;28;20046;-82
2022/10/06 04:37:43;;;;;;;9.35;1.83;;;11.30;99.90;;;;;;5024885;28;20075;-80
2022/10/06 04:40:09;;;;;;;10.77;1.60;;;11.30;99.90;;;;;;5027284;28;20128;-82
2022/10/06 04:42:35;;;;;;;10.88;3.17;;;11.20;99.90;;;;;;5049444;28;20080;-82
2022/10/06 04:45:02;;;;;;;11.60;2.55;;;11.40;99.90;;;;;;5030180;28;20041;-81
2022/10/06 04:47:28;;;;;;;19.33;3.83;;;11.40;99.90;;;;;;5029428;28;20062;-78
2022/10/06 04:49:53;;;;;;;9.38;1.98;;;11.20;99.90;;;;;;5043368;28;20128;-82
2022/10/06 04:52:19;;;;;;;12.07;1.88;;;11.20;99.90;;;;;;5048290;28;20460;-83
2022/10/06 04:54:44;;;;;;;12.25;2.45;;;11.40;99.90;;;;;;5048259;28;20460;-80
2022/10/06 04:57:10;;;;;;;8.70;1.65;;;11.20;99.90;;;;;;5049109;28;20079;-82
2022/10/06 05:02:21;;;;;;;9.77;1.70;;;11.20;99.90;;;;;;5047790;28;20048;-83
2022/10/06 05:04:47;;;;;;;7.20;1.60;;;11.40;99.90;;;;;;5041472;28;20083;-82
2022/10/06 05:07:12;;;;;;;8.63;1.13;;;11.20;99.90;;;;;;5049557;28;20073;-83
2022/10/06 05:09:38;;;;;;;9.63;1.48;;;11.30;99.90;;;;;;5048148;28;20651;-82
2022/10/06 05:12:04;;;;;;;12.18;1.65;;;11.30;99.90;;;;;;5049035;28;20049;-82
2022/10/06 05:14:32;;;;;;;14.15;2.22;;;11.30;99.90;;;;;;5048787;28;20103;-81
2022/10/06 05:16:58;;;;;;;12.98;2.53;;;11.20;99.90;;;;;;5049711;28;20480;-80
2022/10/06 05:19:23;;;;;;;15.48;3.47;;;11.10;99.90;;;;;;5043181;28;20472;-80
2022/10/06 05:21:49;;;;;;;9.80;1.98;;;11.20;99.90;;;;;;5032879;28;20087;-82
2022/10/06 05:24:15;;;;;;;8.80;1.85;;;11.40;99.90;;;;;;5046477;28;20057;-76
2022/10/06 05:26:40;;;;;;;12.35;1.63;;;11.10;99.90;;;;;;5050606;28;20129;-81
2022/10/06 05:29:06;;;;;;;17.80;3.00;;;11.30;99.90;;;;;;5044379;28;20488;-81
2022/10/06 05:31:37;;;;;;;10.07;1.73;;;11.40;99.90;;;;;;5034557;28;20419;-81
2022/10/06 05:34:03;;;;;;;11.98;1.90;;;11.20;99.90;;;;;;5051823;28;20507;-81
2022/10/06 05:36:31;;;;;;;16.17;2.45;;;11.40;99.90;;;;;;5051807;28;20483;-81
2022/10/06 05:38:57;;;;;;;12.00;3.35;;;11.30;99.90;;;;;;5050276;28;20040;-81
2022/10/06 05:41:30;;;;;;;11.07;2.28;;;11.20;99.90;;;;;;5052378;28;20517;-81
2022/10/06 05:43:57;;;;;;;9.70;1.65;;;11.40;99.90;;;;;;5048062;28;20041;-80
2022/10/06 05:46:28;;;;;;;19.17;2.80;;;11.50;99.90;;;;;;5035676;28;20045;-81
2022/10/06 05:48:59;;;;;;;16.67;1.70;;;11.50;99.90;;;;;;5029957;28;20041;-81
2022/10/06 05:51:27;;;;;;;10.48;1.58;;;11.30;99.90;;;;;;5051851;28;20616;-82
2022/10/06 05:53:53;;;;;;;14.10;3.38;;;11.50;99.90;;;;;;5050350;28;20037;-80
2022/10/06 05:56:20;;;;;;;14.40;2.50;;;11.50;99.90;;;;;;5035268;28;20043;-81
2022/10/06 05:58:47;;;;;;;15.30;3.17;;;11.40;99.90;;;;;;5047178;28;20041;-80
2022/10/06 06:01:16;;;;;;;12.80;2.20;;;11.50;99.90;;;;;;5048677;28;20081;-80
2022/10/06 06:03:46;;;;;;;15.25;3.92;;;11.40;99.90;;;;;;5017722;28;20091;-84
2022/10/06 06:06:27;;;;;;;11.77;1.23;;;11.30;99.90;;;;;;5031327;28;20056;-82
2022/10/06 06:08:59;;;;;;;12.25;2.42;;;11.40;99.90;;;;;;5050135;28;20048;-84
2022/10/06 06:11:26;;;;;;;11.02;2.42;;;11.50;99.90;;;;;;5055130;28;20123;-79
2022/10/06 06:13:57;;;;;;;12.25;2.00;;;11.40;99.90;;;;;;5052015;28;20426;-82
2022/10/06 06:16:23;;;;;;;10.38;2.42;;;11.50;99.90;;;;;;5053291;28;20065;-82
2022/10/06 06:18:49;;;;;;;11.02;1.63;;;11.40;99.90;;;;;;5033381;28;20041;-83
2022/10/06 06:21:15;;;;;;;8.43;1.90;;;11.40;99.90;;;;;;5050898;28;20113;-82
2022/10/06 06:23:45;;;;;;;11.43;3.15;;;11.60;99.90;;;;;;5047037;28;20038;-83
2022/10/06 06:26:16;;;;;;;13.30;3.70;;;11.60;99.90;;;;;;5051427;28;20052;-83
2022/10/06 06:28:45;;;;;;;14.13;2.55;;;11.60;99.90;;;;;;5035225;28;20356;-82
2022/10/06 06:31:13;;;;;;;13.55;2.92;;;11.70;99.90;;;;;;5043401;28;20053;-82
2022/10/06 06:33:40;;;;;;;10.70;2.17;;;11.80;99.90;;;;;;5039369;28;20050;-83
2022/10/06 06:36:19;;;;;;;9.70;3.13;;;11.80;99.90;;;;;;5021165;28;20048;-83
2022/10/06 06:38:50;;;;;;;15.80;3.50;;;11.80;99.90;;;;;;5048574;28;20051;-83
2022/10/06 06:41:19;;;;;;;6.90;2.22;;;11.80;99.90;;;;;;5042923;28;20393;-81
2022/10/06 06:43:45;;;;;;;13.48;2.58;;;11.90;99.90;;;;;;5040014;28;20045;-82
2022/10/06 06:46:13;;;;;;;12.85;2.30;;;11.80;99.90;;;;;;5046178;28;20090;-82
2022/10/06 06:48:40;;;;;;;7.05;1.52;;;11.90;99.90;;;;;;5048142;28;20127;-81
2022/10/06 06:51:06;;;;;;;16.50;2.40;;;12.10;99.90;;;;;;5037881;28;20052;-82
2022/10/06 06:53:33;;;;;;;12.93;2.55;;;12.10;99.90;;;;;;5049371;28;20044;-83
2022/10/06 06:55:59;;;;;;;9.75;2.08;;;12.10;99.90;;;;;;5049513;28;20403;-78
2022/10/06 06:58:25;;;;;;;27.88;3.20;;;12.10;99.90;;;;;;5050260;28;20040;-82
2022/10/06 07:00:51;;;;;;;19.02;3.42;;;12.10;99.90;;;;;;5040707;28;20053;-84
2022/10/06 07:03:19;;;;;;;14.38;2.45;;;12.00;99.90;;;;;;5050369;28;20029;-82
2022/10/06 07:05:45;;;;;;;7.85;1.75;;;12.10;99.90;;;;;;5031331;28;20064;-81
2022/10/06 07:08:15;;;;;;;11.60;2.83;;;12.20;99.90;;;;;;5047873;28;20128;-83
2022/10/06 07:10:44;;;;;;;12.57;2.10;;;12.20;99.90;;;;;;5050160;28;20404;-81
2022/10/06 07:13:13;;;;;;;33.33;4.28;;;12.40;99.90;;;;;;5047468;28;20131;-79
2022/10/06 07:26:45;;;;;;;10.43;1.88;;;12.50;99.90;;;;;;5047684;28;20049;-76
2022/10/06 07:29:11;;;;;;;9.88;2.05;;;12.70;99.90;;;;;;5025030;28;20048;-79
2022/10/06 07:31:42;;;;;;;13.90;2.42;;;12.70;99.90;;;;;;5031538;28;20059;-81
2022/10/06 07:34:08;;;;;;;12.98;3.10;;;12.70;99.90;;;;;;5049745;28;20079;-81
2022/10/06 07:36:34;;;;;;;11.07;2.05;;;12.80;99.90;;;;;;5032170;28;20049;-78
2022/10/06 07:38:59;;;;;;;8.93;2.08;;;12.70;99.90;;;;;;5040916;28;20045;-80
2022/10/06 07:41:25;;;;;;;9.68;1.75;;;12.90;99.90;;;;;;5042505;28;20045;-79
2022/10/06 07:43:53;;;;;;;20.85;3.35;;;13.00;99.90;;;;;;5036011;28;20126;-79
2022/10/06 07:46:19;;;;;;;6.93;2.08;;;13.10;99.90;;;;;;5027231;28;20553;-81
2022/10/06 07:48:47;;;;;;;10.38;1.60;;;13.00;99.90;;;;;;5043051;28;20116;-80
2022/10/06 07:51:16;;;;;;;19.17;2.45;;;13.20;99.90;;;;;;5042625;28;20502;-77
2022/10/06 07:53:45;;;;;;;13.93;2.20;;;13.10;99.90;;;;;;5048903;28;20059;-82
2022/10/06 07:56:14;;;;;;;5.68;2.05;;;13.10;99.90;;;;;;5041208;28;20491;-79
2022/10/06 07:58:40;;;;;;;8.35;2.85;;;13.30;99.90;;;;;;5012111;28;20050;-80
2022/10/06 08:01:12;;;;;;;16.17;2.22;;;13.20;99.90;;;;;;5043710;28;20040;-82
2022/10/06 08:03:39;;;;;;;9.70;2.95;;;13.40;99.90;;;;;;5049476;28;20402;-74
2022/10/06 08:06:11;;;;;;;13.13;2.70;;;13.40;99.90;;;;;;5048309;28;20152;-81
2022/10/06 08:08:37;;;;;;;13.40;2.15;;;13.50;99.90;;;;;;5046455;28;20431;-81
2022/10/06 08:11:04;;;;;;;11.80;1.58;;;13.40;99.90;;;;;;5032593;28;20080;-83
2022/10/06 08:13:32;;;;;;;13.38;2.67;;;13.70;99.90;;;;;;5034479;28;20076;-81
2022/10/06 08:16:07;;;;;;;13.82;1.67;;;13.60;99.90;;;;;;5030100;28;20087;-81
2022/10/06 08:18:32;;;;;;;8.90;1.60;;;13.70;99.90;;;;;;5046390;28;20043;-82
2022/10/06 08:20:58;;;;;;;16.33;2.70;;;13.70;99.90;;;;;;5027130;28;20037;-81
2022/10/06 08:23:24;;;;;;;13.63;2.47;;;13.70;99.90;;;;;;5031614;28;20053;-80
2022/10/06 08:25:52;;;;;;;10.50;1.80;;;13.80;99.90;;;;;;5030994;28;20049;-81
2022/10/06 08:28:19;;;;;;;14.63;2.72;;;13.80;99.90;;;;;;5042395;28;20408;-82
2022/10/06 08:30:45;;;;;;;12.77;2.17;;;13.80;99.90;;;;;;5049269;28;20497;-83
2022/10/06 08:33:11;;;;;;;10.98;1.60;;;13.90;99.90;;;;;;5038028;28;20045;-83
2022/10/06 08:35:38;;;;;;;10.80;2.78;;;13.90;99.90;;;;;;5043826;28;20057;-81
2022/10/06 08:38:05;;;;;;;9.60;3.08;;;13.90;99.90;;;;;;5049601;28;20502;-79
2022/10/06 08:40:31;;;;;;;9.93;1.58;;;14.10;99.90;;;;;;5048838;28;20391;-81
2022/10/06 08:42:59;;;;;;;8.13;1.52;;;14.00;99.90;;;;;;5030846;28;20080;-80
2022/10/06 08:45:34;;;;;;;19.15;2.95;;;14.00;99.90;;;;;;5034950;28;20037;-82
2022/10/06 08:48:05;;;;;;;10.70;2.50;;;14.10;99.90;;;;;;5044406;28;20041;-83
2022/10/06 08:50:37;;;;;;;10.90;1.92;;;14.10;99.90;;;;;;5033984;28;20043;-80
2022/10/06 08:53:22;;;;;;;12.23;2.53;;;14.20;99.90;;;;;;5031417;28;20056;-81
2022/10/06 08:56:04;;;;;;;9.20;1.83;;;14.20;99.90;;;;;;5044790;28;20106;-79
2022/10/06 08:58:51;;;;;;;9.60;1.70;;;14.40;99.90;;;;;;5029351;28;20124;-79
2022/10/06 09:01:22;;;;;;;11.98;2.67;;;14.40;99.90;;;;;;5044585;28;20488;-80
2022/10/06 09:03:51;;;;;;;20.13;3.28;;;14.40;99.90;;;;;;5049490;28;20091;-81
2022/10/06 09:06:38;;;;;;;15.55;2.72;;;14.40;99.90;;;;;;5016476;28;20406;-76
2022/10/06 09:09:24;;;;;;;9.10;1.13;;;14.50;99.90;;;;;;5048490;28;20044;-78
2022/10/06 09:12:17;;;;;;;9.63;3.00;;;14.50;99.90;;;;;;5052440;28;20091;-79
2022/10/06 09:15:06;;;;;;;12.90;1.83;;;14.50;99.90;;;;;;5049039;28;20045;-79
2022/10/06 09:17:38;;;;;;;7.53;1.48;;;14.70;99.90;;;;;;5045395;28;20036;-81
2022/10/06 09:20:23;;;;;;;8.52;1.40;;;14.60;99.90;;;;;;5048557;28;20056;-80
2022/10/06 09:22:50;;;;;;;15.95;4.18;;;14.60;99.90;;;;;;5051753;28;20053;-80
2022/10/06 09:25:27;;;;;;;7.80;2.15;;;14.70;99.90;;;;;;5042643;28;20046;-78
2022/10/06 09:28:02;;;;;;;10.52;1.90;;;14.80;99.90;;;;;;5050600;28;20361;-79
2022/10/06 09:30:28;;;;;;;9.32;1.15;;;14.80;99.90;;;;;;5051091;28;20148;-77
2022/10/06 09:32:58;;;;;;;12.70;1.63;;;14.90;99.90;;;;;;5029089;28;20046;-78
2022/10/06 09:35:27;;;;;;;6.43;2.22;;;14.80;99.90;;;;;;5038639;28;20105;-78
2022/10/06 09:37:55;;;;;;;9.52;2.67;;;15.00;99.90;;;;;;5045579;28;20036;-79
2022/10/06 09:40:50;;;;;;;10.70;2.38;;;15.00;99.90;;;;;;5044564;28;20107;-75
2022/10/06 09:43:21;;;;;;;13.00;2.92;;;14.90;99.90;;;;;;5042704;28;20135;-78
2022/10/06 09:45:50;;;;;;;10.43;3.22;;;15.00;99.90;;;;;;5043841;28;20041;-79
2022/10/06 09:48:22;;;;;;;11.57;1.95;;;15.00;99.90;;;;;;5050015;28;20052;-77
2022/10/06 09:51:13;;;;;;;10.85;2.08;;;15.10;99.90;;;;;;5051687;28;20130;-78
2022/10/06 09:53:40;;;;;;;8.93;1.90;;;15.20;99.90;;;;;;5010343;28;20060;-80
2022/10/06 09:56:17;;;;;;;8.55;2.42;;;15.20;99.90;;;;;;5032319;28;20049;-79
2022/10/06 09:58:55;;;;;;;7.25;1.17;;;15.20;99.90;;;;;;5033293;28;20044;-80
2022/10/06 10:01:24;;;;;;;13.93;2.25;;;15.20;99.90;;;;;;5043274;28;20041;-79
2022/10/06 10:03:53;;;;;;;8.40;1.67;;;14.90;99.90;;;;;;5029264;28;20076;-80
2022/10/06 10:06:26;;;;;;;12.60;1.98;;;14.60;99.90;;;;;;5050550;28;20051;-79
2022/10/06 10:09:11;;;;;;;7.95;1.92;;;14.70;99.90;;;;;;5049119;28;20045;-79
2022/10/06 10:14:21;;;;;;;3.38;1.23;;;15.10;99.90;;;;;;5050033;28;20436;-78
2022/10/06 10:16:48;;;;;;;8.25;1.73;;;15.10;99.90;;;;;;5049773;28;20126;-76
2022/10/06 10:19:26;;;;;;;7.80;1.42;;;15.20;99.90;;;;;;5033022;28;20400;-79
2022/10/06 10:21:55;;;;;;;6.30;2.72;;;15.30;99.90;;;;;;5050415;28;20115;-77
2022/10/06 10:24:46;;;;;;;7.32;2.38;;;15.10;99.90;;;;;;5040527;28;20042;-78
2022/10/06 10:27:25;;;;;;;7.93;1.85;;;15.00;99.90;;;;;;5031560;28;20377;-73
2022/10/06 10:30:00;;;;;;;5.90;1.50;;;15.30;99.90;;;;;;5041683;28;20037;-74
2022/10/06 10:33:02;;;;;;;9.60;1.77;;;15.40;99.90;;;;;;5049496;28;20048;-74
2022/10/06 10:35:33;;;;;;;11.25;1.40;;;15.50;99.90;;;;;;5050524;28;20037;-73
2022/10/06 10:38:20;;;;;;;7.07;1.23;;;15.40;99.90;;;;;;5030922;28;20116;-73
2022/10/06 10:40:49;;;;;;;7.65;1.00;;;15.40;99.90;;;;;;5050439;28;20116;-75
2022/10/06 10:43:33;;;;;;;13.52;0.98;;;15.30;99.90;;;;;;5051391;28;20041;-74
2022/10/06 10:46:21;;;;;;;8.30;1.50;;;15.40;99.90;;;;;;5041287;28;20114;-73
2022/10/06 10:49:26;;;;;;;7.00;1.90;;;15.50;99.90;;;;;;5029024;28;20567;-74
2022/10/06 10:52:13;;;;;;;9.30;1.42;;;15.70;99.90;;;;;;5049510;28;20041;-74
2022/10/06 10:54:56;;;;;;;9.68;1.85;;;15.40;99.90;;;;;;5046277;28;20041;-74
2022/10/06 10:57:32;;;;;;;8.18;1.30;;;15.60;99.90;;;;;;5041726;28;20053;-73
2022/10/06 11:00:11;;;;;;;3.15;1.13;;;15.60;99.90;;;;;;5040889;28;20569;-74
2022/10/06 11:02:39;;;;;;;5.07;1.40;;;15.60;99.90;;;;;;5034820;28;20045;-74
2022/10/06 11:05:16;;;;;;;4.50;1.00;;;15.70;99.90;;;;;;5047145;28;20033;-73
2022/10/06 11:07:56;;;;;;;6.22;0.90;;;15.70;99.90;;;;;;5050830;28;20045;-74
2022/10/06 11:10:29;;;;;;;9.10;1.83;;;15.70;99.90;;;;;;5045378;28;20034;-75
2022/10/06 11:13:22;;;;;;;6.40;1.30;;;15.60;99.90;;;;;;5032526;28;20083;-74
2022/10/06 11:15:59;;;;;;;12.25;2.30;;;15.70;99.90;;;;;;5043772;28;20045;-74
2022/10/06 11:18:40;;;;;;;7.28;1.33;;;15.80;99.90;;;;;;5036651;28;20041;-75
2022/10/06 11:21:11;;;;;;;7.10;2.38;;;15.70;99.90;;;;;;5049779;28;20049;-75
2022/10/06 11:23:43;;;;;;;11.13;1.63;;;15.90;99.90;;;;;;5048280;28;20077;-74
2022/10/06 11:26:13;;;;;;;9.38;0.80;;;16.00;99.90;;;;;;5047819;28;20499;-75
2022/10/06 11:29:09;;;;;;;7.38;1.77;;;16.00;99.90;;;;;;5047157;28;21429;-75
2022/10/06 11:31:46;;;;;;;3.65;0.77;;;16.00;99.90;;;;;;5048321;28;20056;-74
2022/10/06 11:34:13;;;;;;;7.10;0.98;;;16.00;99.90;;;;;;5031105;28;20053;-77
2022/10/06 11:36:38;;;;;;;8.32;1.27;;;16.10;99.90;;;;;;5047888;28;20127;-78
2022/10/06 11:39:15;;;;;;;5.60;0.95;;;16.10;99.90;;;;;;5046915;28;20124;-79
2022/10/06 11:41:49;;;;;;;5.68;1.48;;;15.90;99.90;;;;;;5031105;28;20052;-77
2022/10/06 11:44:21;;;;;;;6.82;1.83;;;16.00;99.90;;;;;;5042379;28;20041;-77
2022/10/06 11:46:56;;;;;;;11.45;2.20;;;15.80;99.90;;;;;;5043469;28;20064;-75
2022/10/06 11:49:28;;;;;;;12.65;1.60;;;16.00;99.90;;;;;;5027764;28;20048;-78
2022/10/06 11:51:55;;;;;;;7.40;1.67;;;16.20;99.90;;;;;;5049488;28;20040;-76
2022/10/06 11:54:38;;;;;;;8.30;2.15;;;16.30;99.90;;;;;;5047512;28;20051;-78
2022/10/06 11:57:22;;;;;;;5.30;1.48;;;16.40;99.90;;;;;;5046591;28;20118;-76
2022/10/06 12:00:11;;;;;;;8.65;1.38;;;16.50;99.90;;;;;;5047925;28;20056;-77
2022/10/06 12:02:39;;;;;;;10.25;2.05;;;16.40;99.90;;;;;;5002278;28;20052;-77
2022/10/06 12:05:14;;;;;;;8.13;1.20;;;16.40;99.90;;;;;;5045165;28;20090;-78
2022/10/06 12:07:52;;;;;;;1.52;0.50;;;16.20;99.90;;;;;;5045595;28;20044;-77
2022/10/06 12:10:26;;;;;;;5.63;1.10;;;16.20;99.90;;;;;;5044830;28;20040;-76
2022/10/06 12:13:30;;;;;;;7.50;1.00;;;16.30;99.90;;;;;;5039831;28;20045;-76
2022/10/06 12:16:31;;;;;;;5.65;0.82;;;16.40;99.90;;;;;;5052537;28;20068;-77
2022/10/06 12:19:30;;;;;;;14.60;1.90;;;16.30;99.90;;;;;;5040900;28;20045;-77
2022/10/06 12:22:16;;;;;;;2.75;1.00;;;16.30;99.90;;;;;;5049310;28;20045;-77
2022/10/06 12:25:11;;;;;;;6.97;1.80;;;16.40;99.90;;;;;;5032146;28;20045;-78
2022/10/06 12:28:01;;;;;;;4.82;1.13;;;16.50;99.90;;;;;;5024762;28;20053;-77
2022/10/06 12:30:42;;;;;;;8.60;2.65;;;16.60;99.90;;;;;;5043465;28;20159;-77
2022/10/06 12:33:17;;;;;;;7.50;1.40;;;16.40;99.90;;;;;;5032097;28;20087;-78
2022/10/06 12:35:43;;;;;;;11.98;2.72;;;16.50;99.90;;;;;;5047060;28;20110;-78
2022/10/06 12:38:40;;;;;;;5.50;1.02;;;16.30;99.90;;;;;;5050889;28;20045;-76
2022/10/06 12:41:12;;;;;;;5.90;1.77;;;16.30;99.90;;;;;;5041573;28;20053;-76
2022/10/06 12:43:56;;;;;;;8.65;1.20;;;16.20;99.90;;;;;;5051042;28;20106;-76
2022/10/06 12:46:24;;;;;;;7.05;2.55;;;16.10;99.90;;;;;;5041705;28;20052;-78
2022/10/06 12:49:33;;;;;;;3.25;1.40;;;16.00;99.90;;;;;;5049549;28;20056;-76
2022/10/06 12:52:06;;;;;;;7.60;1.83;;;15.90;99.90;;;;;;5043306;28;20056;-77
2022/10/06 12:54:37;;;;;;;5.22;1.25;;;15.80;99.90;;;;;;5037679;28;20071;-78
2022/10/06 12:57:17;;;;;;;9.43;1.75;;;15.70;99.90;;;;;;5048712;28;20106;-78
2022/10/06 12:59:43;;;;;;;9.55;1.17;;;15.60;99.90;;;;;;5045239;28;20073;-77
2022/10/06 13:02:24;;;;;;;6.40;1.65;;;15.90;99.90;;;;;;5029557;28;20049;-76
2022/10/06 13:05:08;;;;;;;10.32;1.60;;;16.10;99.90;;;;;;5044793;28;20415;-75
2022/10/06 13:07:53;;;;;;;11.05;1.92;;;16.30;99.90;;;;;;5048205;28;20041;-78
2022/10/06 13:10:20;;;;;;;7.95;1.58;;;16.30;99.90;;;;;;5046000;28;20389;-77
2022/10/06 13:12:49;;;;;;;3.17;1.38;;;16.30;99.90;;;;;;5039216;28;20041;-77
2022/10/06 13:15:14;;;;;;;7.68;1.58;;;16.30;99.90;;;;;;5033172;28;20102;-77
2022/10/06 13:17:45;;;;;;;9.32;1.65;;;16.40;99.90;;;;;;5045370;28;20045;-76